Roscommon, MI

9:47 AM EST on March 06, 2015 (GMT -0500)
Higgins Lake Point Detroit | Change Station
CLOSE
Current Station
Personal Weather Station
Location: Roscommon, MI
Elevation: 1165 ft
Nearby Weather Stations

Elev 1165 ft 44.47 °N, 84.71 °W | Updated 11 seconds ago

Clear
Clear
11.3 °F
Feels Like 11 °F
N
0.0
Wind Variable Wind from SW
Gusts 6.5 mph

Today
High -- | Low -- °F
--% Chance of Precip.
Yesterday
High -- | Low -- °F
Precip. -- in
7:07 AM 6:32 PM
Full, 99% visible
Pressure 30.37 in
Visibility 10.0 miles
Clouds Clear
Windchill 11 °F
Dew Point 6 °F
Humidity 80%
Rainfall in
Snow Depth Not available.
UV 1 out of 12
Pollen .40 out of 12
Air Quality Not available.
Flu Activity Not available.
METAR KHTL 061353Z AUTO 20007KT 10SM CLR M14/M17 A3028 RMK AO2 SLP283 T11391167

More Conditions Fewer Conditions

Pressure 30.37 in
Visibility 10.0 miles
Clouds Clear
Windchill 11 °F
Dew Point 6 °F
Humidity 80%
Rainfall in
Snow Depth Not available.
UV 1 out of 12
Pollen .40 out of 12
Air Quality Not available.
Flu Activity Not available.
METAR KHTL 061353Z AUTO 20007KT 10SM CLR M14/M17 A3028 RMK AO2 SLP283 T11391167

More Conditions Fewer Conditions

Nowcast | as of 9:00 am EST on March 6, 2015

At 10 am...mostly clear. Temperature 10 above. Southwest winds 13 mph. Wind chill 5 below. At 12 PM...partly cloudy. Temperature 19. Southwest winds 15 mph. At 2 PM...partly cloudy. Temperature 22. Southwest winds 17 mph. At 4 PM...mostly cloudy. Temperature 23. Southwest winds 17 mph.

×

10-Day Weather Forecast

Almanac

Astronomy

Mar. 06, 2015 Rise Set
Actual Time
Civil Twilight
Nautical Twilight
Astronomical Twilight
Moon
Length of Visible Light
Length of Day
Tomorrow will be .
, % of the Moon is Illuminated

Today's Extremes

State Highs State Lows

Community

WunderPhotos

Upload Photos

1,803,285 photos uploaded!

WunderBlogs® & News

Nearby

Air Quality

  Air Quality AQ Index Pollutant
Not available.

Snow Depth

Station Depth Elevation

Earthquake Activity

City Distance Mag. Time & Date
Minimum magnitude displayed is 2.5.

Coastal Water Temperatures

Place Temperature

Nearby Weather Stations